sensor_id;sensor_type;location;lat;lon;timestamp;temperature;humidity
22319;DHT22;11327;52.334;9.506;2023-07-13T00:01:36;19.20;99.90
22319;DHT22;11327;52.334;9.506;2023-07-13T00:04:59;19.20;99.90
22319;DHT22;11327;52.334;9.506;2023-07-13T00:08:19;19.20;99.90
22319;DHT22;11327;52.334;9.506;2023-07-13T00:11:41;19.10;99.90
22319;DHT22;11327;52.334;9.506;2023-07-13T00:15:10;19.20;99.90
22319;DHT22;11327;52.334;9.506;2023-07-13T00:18:29;19.10;99.90
22319;DHT22;11327;52.334;9.506;2023-07-13T00:21:50;19.00;99.90
22319;DHT22;11327;52.334;9.506;2023-07-13T00:25:11;19.00;99.90
22319;DHT22;11327;52.334;9.506;2023-07-13T00:28:32;19.00;99.90
22319;DHT22;11327;52.334;9.506;2023-07-13T00:31:54;19.00;99.90
22319;DHT22;11327;52.334;9.506;2023-07-13T00:35:15;19.00;99.90
22319;DHT22;11327;52.334;9.506;2023-07-13T00:38:37;19.00;99.90
22319;DHT22;11327;52.334;9.506;2023-07-13T00:41:59;18.80;99.90
22319;DHT22;11327;52.334;9.506;2023-07-13T00:48:46;18.90;99.90
22319;DHT22;11327;52.334;9.506;2023-07-13T00:52:08;18.90;99.90
22319;DHT22;11327;52.334;9.506;2023-07-13T00:55:30;18.80;99.90
22319;DHT22;11327;52.334;9.506;2023-07-13T00:58:51;18.80;99.90
22319;DHT22;11327;52.334;9.506;2023-07-13T01:02:12;18.70;99.90
22319;DHT22;11327;52.334;9.506;2023-07-13T01:05:35;18.60;99.90
22319;DHT22;11327;52.334;9.506;2023-07-13T01:08:56;18.60;99.90
22319;DHT22;11327;52.334;9.506;2023-07-13T01:12:19;18.50;99.90
22319;DHT22;11327;52.334;9.506;2023-07-13T01:15:49;18.50;99.90
22319;DHT22;11327;52.334;9.506;2023-07-13T01:19:21;18.40;99.90
22319;DHT22;11327;52.334;9.506;2023-07-13T01:22:32;18.50;99.90
22319;DHT22;11327;52.334;9.506;2023-07-13T01:25:53;18.40;99.90
22319;DHT22;11327;52.334;9.506;2023-07-13T01:29:15;18.40;99.90
22319;DHT22;11327;52.334;9.506;2023-07-13T01:32:36;18.40;99.90
22319;DHT22;11327;52.334;9.506;2023-07-13T01:35:57;18.30;99.90
22319;DHT22;11327;52.334;9.506;2023-07-13T01:39:18;18.30;99.90
22319;DHT22;11327;52.334;9.506;2023-07-13T01:42:39;18.20;99.90
22319;DHT22;11327;52.334;9.506;2023-07-13T01:45:59;18.20;99.90
22319;DHT22;11327;52.334;9.506;2023-07-13T01:49:20;18.20;99.90
22319;DHT22;11327;52.334;9.506;2023-07-13T01:52:41;18.10;99.90
22319;DHT22;11327;52.334;9.506;2023-07-13T01:56:02;18.00;99.90
22319;DHT22;11327;52.334;9.506;2023-07-13T01:59:23;18.00;99.90
22319;DHT22;11327;52.334;9.506;2023-07-13T02:02:43;18.00;99.90
22319;DHT22;11327;52.334;9.506;2023-07-13T02:06:04;17.90;99.90
22319;DHT22;11327;52.334;9.506;2023-07-13T02:09:25;17.90;99.90
22319;DHT22;11327;52.334;9.506;2023-07-13T02:12:48;17.80;99.90
22319;DHT22;11327;52.334;9.506;2023-07-13T02:16:09;17.80;99.90
22319;DHT22;11327;52.334;9.506;2023-07-13T02:19:29;17.80;99.90
22319;DHT22;11327;52.334;9.506;2023-07-13T02:22:50;17.80;99.90
22319;DHT22;11327;52.334;9.506;2023-07-13T02:26:11;17.80;99.90
22319;DHT22;11327;52.334;9.506;2023-07-13T02:29:32;17.70;99.90
22319;DHT22;11327;52.334;9.506;2023-07-13T02:32:52;17.80;99.90
22319;DHT22;11327;52.334;9.506;2023-07-13T02:36:13;17.70;99.90
22319;DHT22;11327;52.334;9.506;2023-07-13T02:39:36;17.70;99.90
22319;DHT22;11327;52.334;9.506;2023-07-13T02:42:57;17.70;99.90
22319;DHT22;11327;52.334;9.506;2023-07-13T02:46:18;17.70;99.90
22319;DHT22;11327;52.334;9.506;2023-07-13T02:49:40;17.60;99.90
22319;DHT22;11327;52.334;9.506;2023-07-13T02:53:00;17.70;99.90
22319;DHT22;11327;52.334;9.506;2023-07-13T02:56:24;17.70;99.90
22319;DHT22;11327;52.334;9.506;2023-07-13T02:59:45;17.70;99.90
22319;DHT22;11327;52.334;9.506;2023-07-13T03:03:06;17.80;99.90
22319;DHT22;11327;52.334;9.506;2023-07-13T03:06:27;17.70;99.90
22319;DHT22;11327;52.334;9.506;2023-07-13T03:09:55;17.80;99.90
22319;DHT22;11327;52.334;9.506;2023-07-13T03:13:16;17.80;99.90
22319;DHT22;11327;52.334;9.506;2023-07-13T03:16:37;17.90;99.90
22319;DHT22;11327;52.334;9.506;2023-07-13T03:19:58;17.80;99.90
22319;DHT22;11327;52.334;9.506;2023-07-13T03:23:20;17.80;99.90
22319;DHT22;11327;52.334;9.506;2023-07-13T03:26:41;17.80;99.90
22319;DHT22;11327;52.334;9.506;2023-07-13T03:30:03;17.80;99.90
22319;DHT22;11327;52.334;9.506;2023-07-13T03:33:23;17.90;99.90
22319;DHT22;11327;52.334;9.506;2023-07-13T03:36:44;17.70;99.90
22319;DHT22;11327;52.334;9.506;2023-07-13T03:40:06;17.80;99.90
22319;DHT22;11327;52.334;9.506;2023-07-13T03:43:28;17.80;99.90
22319;DHT22;11327;52.334;9.506;2023-07-13T03:46:49;17.80;99.90
22319;DHT22;11327;52.334;9.506;2023-07-13T03:50:10;17.80;99.90
22319;DHT22;11327;52.334;9.506;2023-07-13T03:53:31;17.90;99.90
22319;DHT22;11327;52.334;9.506;2023-07-13T03:56:51;17.90;99.90
22319;DHT22;11327;52.334;9.506;2023-07-13T04:00:13;18.00;99.90
22319;DHT22;11327;52.334;9.506;2023-07-13T04:03:34;17.90;99.90
22319;DHT22;11327;52.334;9.506;2023-07-13T04:06:55;18.00;99.90
22319;DHT22;11327;52.334;9.506;2023-07-13T04:10:16;17.90;99.90
22319;DHT22;11327;52.334;9.506;2023-07-13T04:13:36;17.80;99.90
22319;DHT22;11327;52.334;9.506;2023-07-13T04:16:57;17.70;99.90
22319;DHT22;11327;52.334;9.506;2023-07-13T04:20:18;17.70;99.90
22319;DHT22;11327;52.334;9.506;2023-07-13T04:23:40;17.80;99.90
22319;DHT22;11327;52.334;9.506;2023-07-13T04:27:01;17.80;99.90
22319;DHT22;11327;52.334;9.506;2023-07-13T04:30:23;17.80;99.90
22319;DHT22;11327;52.334;9.506;2023-07-13T04:33:44;17.80;99.90
22319;DHT22;11327;52.334;9.506;2023-07-13T04:37:05;17.80;99.90
22319;DHT22;11327;52.334;9.506;2023-07-13T04:40:27;17.80;99.90
22319;DHT22;11327;52.334;9.506;2023-07-13T04:43:48;17.80;99.90
22319;DHT22;11327;52.334;9.506;2023-07-13T04:47:09;17.80;99.90
22319;DHT22;11327;52.334;9.506;2023-07-13T04:50:29;17.80;99.90
22319;DHT22;11327;52.334;9.506;2023-07-13T04:53:50;17.90;99.90
22319;DHT22;11327;52.334;9.506;2023-07-13T04:57:11;17.90;99.90
22319;DHT22;11327;52.334;9.506;2023-07-13T05:00:31;17.90;99.90
22319;DHT22;11327;52.334;9.506;2023-07-13T05:03:52;17.90;99.90
22319;DHT22;11327;52.334;9.506;2023-07-13T05:07:13;17.90;99.90
22319;DHT22;11327;52.334;9.506;2023-07-13T05:10:37;18.00;99.90
22319;DHT22;11327;52.334;9.506;2023-07-13T05:13:58;18.00;99.90
22319;DHT22;11327;52.334;9.506;2023-07-13T05:17:18;18.00;99.90
22319;DHT22;11327;52.334;9.506;2023-07-13T05:20:39;18.00;99.90
22319;DHT22;11327;52.334;9.506;2023-07-13T05:24:00;18.00;99.90
22319;DHT22;11327;52.334;9.506;2023-07-13T05:27:21;18.10;99.90
22319;DHT22;11327;52.334;9.506;2023-07-13T05:30:47;18.10;99.90
22319;DHT22;11327;52.334;9.506;2023-07-13T05:34:08;18.10;99.90
22319;DHT22;11327;52.334;9.506;2023-07-13T05:37:28;18.20;99.90
22319;DHT22;11327;52.334;9.506;2023-07-13T05:40:49;18.20;99.90
22319;DHT22;11327;52.334;9.506;2023-07-13T05:44:10;18.20;99.90
22319;DHT22;11327;52.334;9.506;2023-07-13T05:47:31;18.30;99.90
22319;DHT22;11327;52.334;9.506;2023-07-13T05:50:52;18.40;99.90
22319;DHT22;11327;52.334;9.506;2023-07-13T05:54:12;18.30;99.90
22319;DHT22;11327;52.334;9.506;2023-07-13T05:57:33;18.40;99.90
22319;DHT22;11327;52.334;9.506;2023-07-13T06:01:05;18.50;99.90
22319;DHT22;11327;52.334;9.506;2023-07-13T06:04:26;18.50;99.90
22319;DHT22;11327;52.334;9.506;2023-07-13T06:07:47;18.50;99.90
22319;DHT22;11327;52.334;9.506;2023-07-13T06:11:20;18.40;99.90
22319;DHT22;11327;52.334;9.506;2023-07-13T06:14:32;18.60;99.90
22319;DHT22;11327;52.334;9.506;2023-07-13T06:17:53;18.60;99.90
22319;DHT22;11327;52.334;9.506;2023-07-13T06:21:19;18.60;99.90
22319;DHT22;11327;52.334;9.506;2023-07-13T06:24:40;18.60;99.90
22319;DHT22;11327;52.334;9.506;2023-07-13T06:28:00;18.60;99.90
22319;DHT22;11327;52.334;9.506;2023-07-13T06:31:21;18.70;99.90
22319;DHT22;11327;52.334;9.506;2023-07-13T06:34:42;18.80;99.90
22319;DHT22;11327;52.334;9.506;2023-07-13T06:38:02;18.80;99.90
22319;DHT22;11327;52.334;9.506;2023-07-13T06:41:23;19.00;99.90
22319;DHT22;11327;52.334;9.506;2023-07-13T06:44:46;19.00;99.90
22319;DHT22;11327;52.334;9.506;2023-07-13T06:48:07;19.00;99.90
22319;DHT22;11327;52.334;9.506;2023-07-13T06:51:28;19.10;99.90
22319;DHT22;11327;52.334;9.506;2023-07-13T06:54:48;19.20;99.90
22319;DHT22;11327;52.334;9.506;2023-07-13T06:58:09;19.20;99.90
22319;DHT22;11327;52.334;9.506;2023-07-13T07:01:30;19.30;99.90
22319;DHT22;11327;52.334;9.506;2023-07-13T07:04:51;19.30;99.90
22319;DHT22;11327;52.334;9.506;2023-07-13T07:08:12;19.40;99.90
22319;DHT22;11327;52.334;9.506;2023-07-13T07:11:32;19.60;99.90
22319;DHT22;11327;52.334;9.506;2023-07-13T07:14:53;19.70;99.90
22319;DHT22;11327;52.334;9.506;2023-07-13T07:18:14;19.80;99.90
22319;DHT22;11327;52.334;9.506;2023-07-13T07:21:34;19.80;99.90
22319;DHT22;11327;52.334;9.506;2023-07-13T07:24:56;19.80;99.90
22319;DHT22;11327;52.334;9.506;2023-07-13T07:28:17;19.90;99.90
22319;DHT22;11327;52.334;9.506;2023-07-13T07:31:38;19.90;99.90
22319;DHT22;11327;52.334;9.506;2023-07-13T07:34:59;20.00;99.90
22319;DHT22;11327;52.334;9.506;2023-07-13T07:38:20;20.00;99.90
22319;DHT22;11327;52.334;9.506;2023-07-13T07:41:40;20.00;99.90
22319;DHT22;11327;52.334;9.506;2023-07-13T07:45:01;20.20;99.90
22319;DHT22;11327;52.334;9.506;2023-07-13T07:48:22;20.20;99.90
22319;DHT22;11327;52.334;9.506;2023-07-13T07:51:43;20.40;99.90
22319;DHT22;11327;52.334;9.506;2023-07-13T07:55:06;20.50;99.90
22319;DHT22;11327;52.334;9.506;2023-07-13T07:58:27;20.40;99.90
22319;DHT22;11327;52.334;9.506;2023-07-13T08:01:47;20.60;99.90
22319;DHT22;11327;52.334;9.506;2023-07-13T08:05:10;20.90;99.90
22319;DHT22;11327;52.334;9.506;2023-07-13T08:08:31;20.90;99.90
22319;DHT22;11327;52.334;9.506;2023-07-13T08:11:52;21.00;99.90
22319;DHT22;11327;52.334;9.506;2023-07-13T08:15:16;21.00;99.90
22319;DHT22;11327;52.334;9.506;2023-07-13T08:18:38;21.20;99.90
22319;DHT22;11327;52.334;9.506;2023-07-13T08:21:58;21.40;99.90
22319;DHT22;11327;52.334;9.506;2023-07-13T08:25:19;21.40;99.90
22319;DHT22;11327;52.334;9.506;2023-07-13T08:28:41;21.40;99.90
22319;DHT22;11327;52.334;9.506;2023-07-13T08:32:01;21.30;99.90
22319;DHT22;11327;52.334;9.506;2023-07-13T08:35:22;21.40;99.90
22319;DHT22;11327;52.334;9.506;2023-07-13T08:38:43;21.40;99.90
22319;DHT22;11327;52.334;9.506;2023-07-13T08:45:46;21.20;99.90
22319;DHT22;11327;52.334;9.506;2023-07-13T08:49:16;21.30;99.90
22319;DHT22;11327;52.334;9.506;2023-07-13T08:52:39;21.40;99.90
22319;DHT22;11327;52.334;9.506;2023-07-13T08:56:01;21.50;99.90
22319;DHT22;11327;52.334;9.506;2023-07-13T08:59:24;21.50;99.90
22319;DHT22;11327;52.334;9.506;2023-07-13T09:06:12;21.70;99.90
22319;DHT22;11327;52.334;9.506;2023-07-13T09:13:20;21.70;99.90
22319;DHT22;11327;52.334;9.506;2023-07-13T09:16:39;22.00;99.90
22319;DHT22;11327;52.334;9.506;2023-07-13T09:20:03;22.10;99.90
22319;DHT22;11327;52.334;9.506;2023-07-13T09:23:28;22.30;99.90
22319;DHT22;11327;52.334;9.506;2023-07-13T09:26:50;22.30;99.90
22319;DHT22;11327;52.334;9.506;2023-07-13T09:33:35;22.80;99.90
22319;DHT22;11327;52.334;9.506;2023-07-13T09:36:56;22.90;99.90
22319;DHT22;11327;52.334;9.506;2023-07-13T09:40:30;22.60;99.90
22319;DHT22;11327;52.334;9.506;2023-07-13T09:47:38;22.60;99.90
22319;DHT22;11327;52.334;9.506;2023-07-13T09:50:58;22.50;99.90
22319;DHT22;11327;52.334;9.506;2023-07-13T09:54:23;22.20;99.90
22319;DHT22;11327;52.334;9.506;2023-07-13T09:57:47;22.30;99.90
22319;DHT22;11327;52.334;9.506;2023-07-13T10:01:09;22.40;99.90
22319;DHT22;11327;52.334;9.506;2023-07-13T10:04:34;22.60;99.90
22319;DHT22;11327;52.334;9.506;2023-07-13T10:07:56;22.80;99.90
22319;DHT22;11327;52.334;9.506;2023-07-13T10:11:20;22.70;99.90
22319;DHT22;11327;52.334;9.506;2023-07-13T10:14:42;22.70;99.90
22319;DHT22;11327;52.334;9.506;2023-07-13T10:18:04;22.90;99.90
22319;DHT22;11327;52.334;9.506;2023-07-13T10:24:54;23.60;99.90
22319;DHT22;11327;52.334;9.506;2023-07-13T10:28:28;23.80;99.90
22319;DHT22;11327;52.334;9.506;2023-07-13T10:31:45;24.00;99.90
22319;DHT22;11327;52.334;9.506;2023-07-13T10:35:09;24.00;99.90
22319;DHT22;11327;52.334;9.506;2023-07-13T10:38:31;24.20;99.90
22319;DHT22;11327;52.334;9.506;2023-07-13T10:42:03;24.20;99.90
22319;DHT22;11327;52.334;9.506;2023-07-13T10:45:22;24.30;99.90
22319;DHT22;11327;52.334;9.506;2023-07-13T10:48:45;24.50;99.90
22319;DHT22;11327;52.334;9.506;2023-07-13T10:59:23;24.80;99.90
22319;DHT22;11327;52.334;9.506;2023-07-13T11:02:41;24.70;99.90
22319;DHT22;11327;52.334;9.506;2023-07-13T11:06:33;24.80;99.90
22319;DHT22;11327;52.334;9.506;2023-07-13T11:09:56;24.60;99.90
22319;DHT22;11327;52.334;9.506;2023-07-13T11:17:23;24.30;99.90
22319;DHT22;11327;52.334;9.506;2023-07-13T11:20:33;24.30;99.90
22319;DHT22;11327;52.334;9.506;2023-07-13T11:24:02;24.30;99.90
22319;DHT22;11327;52.334;9.506;2023-07-13T11:27:45;24.10;99.90
22319;DHT22;11327;52.334;9.506;2023-07-13T11:31:12;23.80;99.90
22319;DHT22;11327;52.334;9.506;2023-07-13T11:34:36;24.00;99.90
22319;DHT22;11327;52.334;9.506;2023-07-13T11:37:57;24.00;99.90
22319;DHT22;11327;52.334;9.506;2023-07-13T11:41:36;24.10;99.90
22319;DHT22;11327;52.334;9.506;2023-07-13T11:44:58;24.40;99.90
22319;DHT22;11327;52.334;9.506;2023-07-13T11:48:29;24.20;99.90
22319;DHT22;11327;52.334;9.506;2023-07-13T11:51:52;24.10;99.90
22319;DHT22;11327;52.334;9.506;2023-07-13T11:55:18;23.90;99.90
22319;DHT22;11327;52.334;9.506;2023-07-13T11:58:39;24.00;99.90
22319;DHT22;11327;52.334;9.506;2023-07-13T12:02:00;24.00;99.90
22319;DHT22;11327;52.334;9.506;2023-07-13T12:05:23;24.20;99.90
22319;DHT22;11327;52.334;9.506;2023-07-13T12:08:45;24.30;99.90
22319;DHT22;11327;52.334;9.506;2023-07-13T12:12:12;24.30;99.90
22319;DHT22;11327;52.334;9.506;2023-07-13T12:15:43;24.00;99.90
22319;DHT22;11327;52.334;9.506;2023-07-13T12:19:03;23.80;99.90
22319;DHT22;11327;52.334;9.506;2023-07-13T12:22:25;24.00;99.90
22319;DHT22;11327;52.334;9.506;2023-07-13T12:25:45;24.30;99.90
22319;DHT22;11327;52.334;9.506;2023-07-13T12:29:07;24.60;99.90
22319;DHT22;11327;52.334;9.506;2023-07-13T12:32:28;24.80;99.90
22319;DHT22;11327;52.334;9.506;2023-07-13T12:35:52;24.90;99.90
22319;DHT22;11327;52.334;9.506;2023-07-13T12:39:16;24.70;99.90
22319;DHT22;11327;52.334;9.506;2023-07-13T12:42:38;24.50;99.90
22319;DHT22;11327;52.334;9.506;2023-07-13T12:46:20;24.20;99.90
22319;DHT22;11327;52.334;9.506;2023-07-13T12:49:47;24.00;99.90
22319;DHT22;11327;52.334;9.506;2023-07-13T12:53:12;23.40;99.90
22319;DHT22;11327;52.334;9.506;2023-07-13T12:56:33;22.90;99.90
22319;DHT22;11327;52.334;9.506;2023-07-13T12:59:54;22.60;99.90
22319;DHT22;11327;52.334;9.506;2023-07-13T13:03:22;22.20;99.90
22319;DHT22;11327;52.334;9.506;2023-07-13T13:06:42;22.00;99.90
22319;DHT22;11327;52.334;9.506;2023-07-13T13:10:12;21.80;99.90
22319;DHT22;11327;52.334;9.506;2023-07-13T13:13:34;21.60;99.90
22319;DHT22;11327;52.334;9.506;2023-07-13T13:16:55;21.70;99.90
22319;DHT22;11327;52.334;9.506;2023-07-13T13:20:21;21.70;99.90
22319;DHT22;11327;52.334;9.506;2023-07-13T13:23:42;21.60;99.90
22319;DHT22;11327;52.334;9.506;2023-07-13T13:27:04;21.60;99.90
22319;DHT22;11327;52.334;9.506;2023-07-13T13:30:26;21.50;99.90
22319;DHT22;11327;52.334;9.506;2023-07-13T13:33:47;21.20;99.90
22319;DHT22;11327;52.334;9.506;2023-07-13T13:37:20;20.80;99.90
22319;DHT22;11327;52.334;9.506;2023-07-13T13:40:42;20.50;99.90
22319;DHT22;11327;52.334;9.506;2023-07-13T13:44:04;20.50;99.90
22319;DHT22;11327;52.334;9.506;2023-07-13T13:47:32;20.60;99.90
22319;DHT22;11327;52.334;9.506;2023-07-13T13:50:53;20.70;99.90
22319;DHT22;11327;52.334;9.506;2023-07-13T13:54:15;20.70;99.90
22319;DHT22;11327;52.334;9.506;2023-07-13T13:57:36;20.50;99.90
22319;DHT22;11327;52.334;9.506;2023-07-13T14:00:57;20.40;99.90
22319;DHT22;11327;52.334;9.506;2023-07-13T14:04:20;20.40;99.90
22319;DHT22;11327;52.334;9.506;2023-07-13T14:07:41;20.50;99.90
22319;DHT22;11327;52.334;9.506;2023-07-13T14:11:02;20.60;99.90
22319;DHT22;11327;52.334;9.506;2023-07-13T14:14:24;20.60;99.90
22319;DHT22;11327;52.334;9.506;2023-07-13T14:17:47;20.60;99.90
22319;DHT22;11327;52.334;9.506;2023-07-13T14:21:22;20.40;99.90
22319;DHT22;11327;52.334;9.506;2023-07-13T14:24:43;20.00;99.90
22319;DHT22;11327;52.334;9.506;2023-07-13T14:31:41;19.20;99.90
22319;DHT22;11327;52.334;9.506;2023-07-13T14:35:02;19.00;99.90
22319;DHT22;11327;52.334;9.506;2023-07-13T14:38:23;18.80;99.90
22319;DHT22;11327;52.334;9.506;2023-07-13T14:41:44;18.70;99.90
22319;DHT22;11327;52.334;9.506;2023-07-13T14:45:12;18.60;99.90
22319;DHT22;11327;52.334;9.506;2023-07-13T14:48:30;18.50;99.90
22319;DHT22;11327;52.334;9.506;2023-07-13T14:51:51;18.30;99.90
22319;DHT22;11327;52.334;9.506;2023-07-13T14:55:15;18.30;99.90
22319;DHT22;11327;52.334;9.506;2023-07-13T14:58:36;18.10;99.90
22319;DHT22;11327;52.334;9.506;2023-07-13T15:01:56;17.80;99.90
22319;DHT22;11327;52.334;9.506;2023-07-13T15:05:21;17.80;99.90
22319;DHT22;11327;52.334;9.506;2023-07-13T15:08:43;17.90;99.90
22319;DHT22;11327;52.334;9.506;2023-07-13T15:12:05;17.80;99.90
22319;DHT22;11327;52.334;9.506;2023-07-13T15:15:28;17.80;99.90
22319;DHT22;11327;52.334;9.506;2023-07-13T15:18:49;17.80;99.90
22319;DHT22;11327;52.334;9.506;2023-07-13T15:22:11;17.80;99.90
22319;DHT22;11327;52.334;9.506;2023-07-13T15:25:33;17.80;99.90
22319;DHT22;11327;52.334;9.506;2023-07-13T15:28:54;17.70;99.90
22319;DHT22;11327;52.334;9.506;2023-07-13T15:32:15;17.80;99.90
22319;DHT22;11327;52.334;9.506;2023-07-13T15:35:36;17.80;99.90
22319;DHT22;11327;52.334;9.506;2023-07-13T15:38:57;18.00;99.90
22319;DHT22;11327;52.334;9.506;2023-07-13T15:42:20;18.00;99.90
22319;DHT22;11327;52.334;9.506;2023-07-13T15:45:41;18.20;99.90
22319;DHT22;11327;52.334;9.506;2023-07-13T15:49:08;18.20;99.90
22319;DHT22;11327;52.334;9.506;2023-07-13T15:52:29;18.30;99.90
22319;DHT22;11327;52.334;9.506;2023-07-13T15:55:51;18.40;99.90
22319;DHT22;11327;52.334;9.506;2023-07-13T15:59:14;18.30;99.90
22319;DHT22;11327;52.334;9.506;2023-07-13T16:02:34;18.40;99.90
22319;DHT22;11327;52.334;9.506;2023-07-13T16:05:55;18.40;99.90
22319;DHT22;11327;52.334;9.506;2023-07-13T16:09:22;18.40;99.90
22319;DHT22;11327;52.334;9.506;2023-07-13T16:12:44;18.30;99.90
22319;DHT22;11327;52.334;9.506;2023-07-13T16:16:10;18.30;99.90
22319;DHT22;11327;52.334;9.506;2023-07-13T16:19:32;18.30;99.90
22319;DHT22;11327;52.334;9.506;2023-07-13T16:22:55;18.20;99.90
22319;DHT22;11327;52.334;9.506;2023-07-13T16:26:35;18.20;99.90
22319;DHT22;11327;52.334;9.506;2023-07-13T16:30:14;18.20;99.90
22319;DHT22;11327;52.334;9.506;2023-07-13T16:33:32;18.20;99.90
22319;DHT22;11327;52.334;9.506;2023-07-13T16:36:53;18.20;99.90
22319;DHT22;11327;52.334;9.506;2023-07-13T16:40:23;18.20;99.90
22319;DHT22;11327;52.334;9.506;2023-07-13T16:43:44;18.20;99.90
22319;DHT22;11327;52.334;9.506;2023-07-13T16:47:11;18.10;99.90
22319;DHT22;11327;52.334;9.506;2023-07-13T16:50:32;18.20;99.90
22319;DHT22;11327;52.334;9.506;2023-07-13T16:53:54;18.10;99.90
22319;DHT22;11327;52.334;9.506;2023-07-13T16:57:17;18.20;99.90
22319;DHT22;11327;52.334;9.506;2023-07-13T17:00:39;18.20;99.90
22319;DHT22;11327;52.334;9.506;2023-07-13T17:04:07;18.10;99.90
22319;DHT22;11327;52.334;9.506;2023-07-13T17:07:26;18.20;99.90
22319;DHT22;11327;52.334;9.506;2023-07-13T17:10:53;18.20;99.90
22319;DHT22;11327;52.334;9.506;2023-07-13T17:14:19;18.30;99.90
22319;DHT22;11327;52.334;9.506;2023-07-13T17:17:40;18.40;99.90
22319;DHT22;11327;52.334;9.506;2023-07-13T17:21:05;18.20;99.90
22319;DHT22;11327;52.334;9.506;2023-07-13T17:24:27;18.30;99.90
22319;DHT22;11327;52.334;9.506;2023-07-13T17:27:49;18.40;99.90
22319;DHT22;11327;52.334;9.506;2023-07-13T17:31:12;18.40;99.90
22319;DHT22;11327;52.334;9.506;2023-07-13T17:34:34;18.40;99.90
22319;DHT22;11327;52.334;9.506;2023-07-13T17:37:57;18.40;99.90
22319;DHT22;11327;52.334;9.506;2023-07-13T17:41:19;18.40;99.90
22319;DHT22;11327;52.334;9.506;2023-07-13T17:44:40;18.40;99.90
22319;DHT22;11327;52.334;9.506;2023-07-13T17:48:02;18.50;99.90
22319;DHT22;11327;52.334;9.506;2023-07-13T17:51:24;18.50;99.90
22319;DHT22;11327;52.334;9.506;2023-07-13T17:54:47;18.60;99.90
22319;DHT22;11327;52.334;9.506;2023-07-13T17:58:10;18.70;99.90
22319;DHT22;11327;52.334;9.506;2023-07-13T18:01:32;18.70;99.90
22319;DHT22;11327;52.334;9.506;2023-07-13T18:04:53;18.80;99.90
22319;DHT22;11327;52.334;9.506;2023-07-13T18:08:26;18.70;99.90
22319;DHT22;11327;52.334;9.506;2023-07-13T18:11:48;18.70;99.90
22319;DHT22;11327;52.334;9.506;2023-07-13T18:15:12;18.70;99.90
22319;DHT22;11327;52.334;9.506;2023-07-13T18:18:34;18.80;99.90
22319;DHT22;11327;52.334;9.506;2023-07-13T18:21:55;18.70;99.90
22319;DHT22;11327;52.334;9.506;2023-07-13T18:25:18;18.70;99.90
22319;DHT22;11327;52.334;9.506;2023-07-13T18:28:41;18.70;99.90
22319;DHT22;11327;52.334;9.506;2023-07-13T18:32:03;18.60;99.90
22319;DHT22;11327;52.334;9.506;2023-07-13T18:35:28;18.60;99.90
22319;DHT22;11327;52.334;9.506;2023-07-13T18:38:49;18.50;99.90
22319;DHT22;11327;52.334;9.506;2023-07-13T18:42:10;18.50;99.90
22319;DHT22;11327;52.334;9.506;2023-07-13T18:45:31;18.30;99.90
22319;DHT22;11327;52.334;9.506;2023-07-13T18:48:52;18.30;99.90
22319;DHT22;11327;52.334;9.506;2023-07-13T18:52:20;18.30;99.90
22319;DHT22;11327;52.334;9.506;2023-07-13T18:55:42;18.30;99.90
22319;DHT22;11327;52.334;9.506;2023-07-13T18:59:03;18.20;99.90
22319;DHT22;11327;52.334;9.506;2023-07-13T19:02:24;18.20;99.90
22319;DHT22;11327;52.334;9.506;2023-07-13T19:05:45;18.20;99.90
22319;DHT22;11327;52.334;9.506;2023-07-13T19:09:09;18.20;99.90
22319;DHT22;11327;52.334;9.506;2023-07-13T19:12:30;18.20;99.90
22319;DHT22;11327;52.334;9.506;2023-07-13T19:15:51;18.20;99.90
22319;DHT22;11327;52.334;9.506;2023-07-13T19:19:14;18.20;99.90
22319;DHT22;11327;52.334;9.506;2023-07-13T19:22:35;18.10;99.90
22319;DHT22;11327;52.334;9.506;2023-07-13T19:26:21;18.20;99.90
22319;DHT22;11327;52.334;9.506;2023-07-13T19:29:43;18.10;99.90
22319;DHT22;11327;52.334;9.506;2023-07-13T19:33:05;18.10;99.90
22319;DHT22;11327;52.334;9.506;2023-07-13T19:36:27;18.00;99.90
22319;DHT22;11327;52.334;9.506;2023-07-13T19:39:48;18.00;99.90
22319;DHT22;11327;52.334;9.506;2023-07-13T19:43:14;18.00;99.90
22319;DHT22;11327;52.334;9.506;2023-07-13T19:46:36;18.00;99.90
22319;DHT22;11327;52.334;9.506;2023-07-13T19:49:57;18.00;99.90
22319;DHT22;11327;52.334;9.506;2023-07-13T19:53:18;18.00;99.90
22319;DHT22;11327;52.334;9.506;2023-07-13T19:56:41;18.00;99.90
22319;DHT22;11327;52.334;9.506;2023-07-13T20:00:02;18.00;99.90
22319;DHT22;11327;52.334;9.506;2023-07-13T20:03:24;18.00;99.90
22319;DHT22;11327;52.334;9.506;2023-07-13T20:06:46;18.00;99.90
22319;DHT22;11327;52.334;9.506;2023-07-13T20:10:25;18.00;99.90
22319;DHT22;11327;52.334;9.506;2023-07-13T20:13:47;18.00;99.90
22319;DHT22;11327;52.334;9.506;2023-07-13T20:17:17;18.10;99.90
22319;DHT22;11327;52.334;9.506;2023-07-13T20:20:37;18.00;99.90
22319;DHT22;11327;52.334;9.506;2023-07-13T20:23:59;18.00;99.90
22319;DHT22;11327;52.334;9.506;2023-07-13T20:27:19;18.10;99.90
22319;DHT22;11327;52.334;9.506;2023-07-13T20:30:43;18.00;99.90
22319;DHT22;11327;52.334;9.506;2023-07-13T20:34:22;18.00;99.90
22319;DHT22;11327;52.334;9.506;2023-07-13T20:37:44;18.00;99.90
22319;DHT22;11327;52.334;9.506;2023-07-13T20:41:09;17.90;99.90
22319;DHT22;11327;52.334;9.506;2023-07-13T20:44:31;17.90;99.90
22319;DHT22;11327;52.334;9.506;2023-07-13T20:47:53;17.90;99.90
22319;DHT22;11327;52.334;9.506;2023-07-13T20:51:16;17.80;99.90
22319;DHT22;11327;52.334;9.506;2023-07-13T20:54:38;17.80;99.90
22319;DHT22;11327;52.334;9.506;2023-07-13T20:57:58;17.80;99.90
22319;DHT22;11327;52.334;9.506;2023-07-13T21:01:31;17.80;99.90
22319;DHT22;11327;52.334;9.506;2023-07-13T21:04:58;17.80;99.90
22319;DHT22;11327;52.334;9.506;2023-07-13T21:08:21;17.70;99.90
22319;DHT22;11327;52.334;9.506;2023-07-13T21:11:43;17.70;99.90
22319;DHT22;11327;52.334;9.506;2023-07-13T21:15:04;17.70;99.90
22319;DHT22;11327;52.334;9.506;2023-07-13T21:18:25;17.70;99.90
22319;DHT22;11327;52.334;9.506;2023-07-13T21:21:46;17.70;99.90
22319;DHT22;11327;52.334;9.506;2023-07-13T21:25:19;17.70;99.90
22319;DHT22;11327;52.334;9.506;2023-07-13T21:28:43;17.70;99.90
22319;DHT22;11327;52.334;9.506;2023-07-13T21:32:09;17.60;99.90
22319;DHT22;11327;52.334;9.506;2023-07-13T21:35:31;17.60;99.90
22319;DHT22;11327;52.334;9.506;2023-07-13T21:39:00;17.60;99.90
22319;DHT22;11327;52.334;9.506;2023-07-13T21:42:22;17.60;99.90
22319;DHT22;11327;52.334;9.506;2023-07-13T21:45:43;17.50;99.90
22319;DHT22;11327;52.334;9.506;2023-07-13T21:49:04;17.50;99.90
22319;DHT22;11327;52.334;9.506;2023-07-13T21:52:25;17.50;99.90
22319;DHT22;11327;52.334;9.506;2023-07-13T21:55:47;17.50;99.90
22319;DHT22;11327;52.334;9.506;2023-07-13T21:59:23;17.40;99.90